Terminal Aerodrome Forecast
Issued by NWS Brownsville, TX

Home | Current Version | Previous Version | Text Only | Print | Product List | Glossary On
Versions: 1 2 3 4 5 6 7 8 9 10 11 12 13 14 15 16 17 18 19 20 21 22 23 24 25 26 27 28 29
000
FTUS44 KBRO 180523
TAFMFE
TAF
KMFE 180523Z 1806/1906 16006KT P6SM OVC011
     FM181000 13005KT 5SM BR OVC007
     FM181400 VRB04KT P6SM VCSH OVC025
     FM181600 14012KT P6SM BKN035 OVC150
     FM190300 14008KT P6SM BKN015=

USA.gov is the U.S. government's official web portal to all federal, state and local government web resources and services.